Time;durP1;ratioP1;P1;durP2;ratioP2;P2;SDS_P1;SDS_P2;PMS_P1;PMS_P2;Temp;Humidity;BMP_temperature;BMP_pressure;BME280_temperature;BME280_humidity;BME280_pressure;Samples;Min_cycle;Max_cycle;Signal;HPM_P1;HPM_P2
2021/12/02 00:00:16;;;;;;;2.20;1.30;;;;;;;6.24;76.60;98363.50;4449837;32;35058;-71
2021/12/02 00:03:04;;;;;;;4.05;1.45;;;;;;;7.07;73.07;98362.78;4450476;32;35062;-73
2021/12/02 00:05:52;;;;;;;2.47;1.23;;;;;;;7.32;72.24;98371.28;4449750;32;35346;-71
2021/12/02 00:08:38;;;;;;;3.40;1.40;;;;;;;7.25;72.96;98373.69;4450339;32;34954;-71
2021/12/02 00:11:25;;;;;;;4.45;1.42;;;;;;;6.88;74.34;98384.03;4449441;32;34997;-71
2021/12/02 00:14:13;;;;;;;4.25;1.70;;;;;;;7.46;71.80;98373.84;4449545;32;34640;-71
2021/12/02 00:23:28;;;;;;;4.95;1.92;;;;;;;6.61;75.36;98376.94;4448584;32;34980;-71
2021/12/02 00:26:16;;;;;;;6.43;2.17;;;;;;;6.94;74.49;98377.31;4438491;32;34571;-72
2021/12/02 00:29:04;;;;;;;3.75;2.00;;;;;;;6.44;76.24;98380.41;4449853;32;34142;-71
2021/12/02 00:31:52;;;;;;;3.55;1.90;;;;;;;7.50;72.27;98377.53;4450143;32;33614;-71
2021/12/02 00:34:44;;;;;;;4.68;1.80;;;;;;;7.88;70.63;98377.63;4449898;32;37550;-71
2021/12/02 00:37:31;;;;;;;3.87;1.50;;;;;;;8.05;69.52;98364.00;4449955;32;34596;-71
2021/12/02 00:40:17;;;;;;;3.97;1.58;;;;;;;8.42;68.15;98363.56;4450266;32;35067;-71
2021/12/02 00:43:04;;;;;;;3.85;1.92;;;;;;;8.33;68.20;98369.00;4450138;32;34647;-71
2021/12/02 00:45:50;;;;;;;4.95;1.58;;;;;;;8.41;67.95;98367.41;4450035;32;35675;-72
2021/12/02 00:48:38;;;;;;;3.80;1.30;;;;;;;8.35;67.77;98361.31;4439102;32;33745;-71
2021/12/02 00:51:26;;;;;;;3.22;1.35;;;;;;;8.48;67.47;98364.97;4451165;32;35023;-71
2021/12/02 00:54:14;;;;;;;3.60;1.35;;;;;;;8.33;67.83;98356.16;4450192;32;35149;-71
2021/12/02 00:57:02;;;;;;;4.12;1.30;;;;;;;7.95;69.67;98358.88;4451712;32;35703;-71
2021/12/02 00:59:49;;;;;;;3.45;1.50;;;;;;;8.37;67.97;98359.06;4439621;32;33640;-72
2021/12/02 01:02:37;;;;;;;2.83;1.40;;;;;;;7.99;69.26;98361.75;4451368;32;35346;-71
2021/12/02 01:05:25;;;;;;;3.35;1.27;;;;;;;8.01;69.34;98365.75;4451624;32;34591;-71
2021/12/02 01:08:12;;;;;;;5.05;1.30;;;;;;;8.31;67.72;98363.06;4451437;32;36119;-72
2021/12/02 01:10:58;;;;;;;3.50;1.60;;;;;;;8.39;67.58;98359.53;4450129;32;35158;-71
2021/12/02 01:13:45;;;;;;;2.67;1.25;;;;;;;8.06;68.69;98368.31;4428680;32;33709;-71
2021/12/02 01:16:32;;;;;;;2.80;1.23;;;;;;;7.94;69.00;98368.19;4450139;32;35486;-72
2021/12/02 01:19:19;;;;;;;3.53;1.40;;;;;;;8.23;68.53;98374.84;4449289;32;34935;-72
2021/12/02 01:22:08;;;;;;;4.68;1.30;;;;;;;7.22;72.04;98370.47;4450596;32;35289;-71
2021/12/02 01:24:55;;;;;;;2.75;1.50;;;;;;;7.84;69.50;98368.53;4438495;32;35047;-70
2021/12/02 01:27:42;;;;;;;4.87;1.60;;;;;;;7.18;72.67;98368.72;4449705;32;35516;-71
2021/12/02 01:30:30;;;;;;;4.12;1.48;;;;;;;7.34;71.90;98369.03;4450513;32;36006;-71
2021/12/02 01:33:19;;;;;;;4.15;1.60;;;;;;;8.13;68.67;98350.62;4449860;32;34645;-72
2021/12/02 01:36:07;;;;;;;3.28;1.40;;;;;;;8.36;67.90;98357.44;4451077;32;35024;-71
2021/12/02 01:38:53;;;;;;;2.67;1.35;;;;;;;8.59;67.19;98349.03;4450634;32;34719;-71
2021/12/02 01:41:46;;;;;;;2.45;1.25;;;;;;;7.35;70.85;98351.56;4450246;32;34949;-72
2021/12/02 01:44:34;;;;;;;4.37;1.27;;;;;;;7.76;69.96;98344.78;4449763;32;34663;-71
2021/12/02 01:47:24;;;;;;;3.45;1.45;;;;;;;6.91;73.13;98342.56;4449997;32;34128;-71
2021/12/02 01:50:15;;;;;;;2.90;1.20;;;;;;;6.88;73.70;98348.66;4449723;32;34764;-71
2021/12/02 01:53:01;;;;;;;;;;;;;;;7.14;73.13;98343.22;4451664;32;34564;-71
2021/12/02 01:55:53;;;;;;;2.33;1.00;;;;;;;6.85;74.05;98338.38;4449956;32;34882;-71
2021/12/02 01:58:43;;;;;;;2.92;1.45;;;;;;;7.02;73.38;98334.88;4449849;32;35301;-71
2021/12/02 02:01:32;;;;;;;3.47;1.30;;;;;;;7.62;70.72;98329.41;4450754;32;34242;-72
2021/12/02 02:04:21;;;;;;;3.28;1.37;;;;;;;7.58;70.75;98331.19;4450339;32;34953;-72
2021/12/02 02:07:12;;;;;;;2.25;1.00;;;;;;;7.16;72.01;98333.59;4450099;32;35541;-71
2021/12/02 02:09:59;;;;;;;4.62;1.25;;;;;;;7.72;70.53;98336.47;4449425;32;34774;-72
2021/12/02 02:12:47;;;;;;;2.42;1.10;;;;;;;7.33;71.39;98334.75;4450509;32;35437;-71
2021/12/02 02:15:34;;;;;;;2.25;1.20;;;;;;;8.03;69.20;98324.53;4448643;32;35766;-71
2021/12/02 02:18:21;;;;;;;1.95;1.02;;;;;;;7.96;69.01;98333.19;4449903;32;35544;-71
2021/12/02 02:21:10;;;;;;;5.45;1.35;;;;;;;7.23;71.41;98333.16;4449989;32;34167;-71
2021/12/02 02:23:58;;;;;;;2.67;1.20;;;;;;;7.43;70.93;98335.22;4448698;32;33876;-71
2021/12/02 02:26:45;;;;;;;2.17;1.10;;;;;;;7.21;72.25;98336.19;4450241;32;34968;-71
2021/12/02 02:29:31;;;;;;;2.60;1.35;;;;;;;7.19;72.08;98324.78;4439608;32;34328;-71
2021/12/02 02:32:24;;;;;;;3.90;1.60;;;;;;;7.93;69.65;98313.94;4451219;32;34254;-72
2021/12/02 02:35:10;;;;;;;2.58;1.02;;;;;;;6.96;72.63;98309.72;4448667;32;34623;-72
2021/12/02 02:37:59;;;;;;;2.97;1.40;;;;;;;7.49;70.75;98307.81;4450057;32;35044;-71
2021/12/02 02:40:48;;;;;;;2.47;1.30;;;;;;;7.39;71.73;98315.16;4449478;32;34626;-72
2021/12/02 02:43:35;;;;;;;3.90;1.30;;;;;;;7.82;69.87;98311.56;4449414;32;33875;-71
2021/12/02 02:46:33;;;;;;;2.25;1.10;;;;;;;6.97;72.81;98314.88;4448950;32;34630;-71
2021/12/02 02:49:20;;;;;;;3.30;1.35;;;;;;;7.76;70.55;98322.97;4437444;32;35934;-71
2021/12/02 02:52:07;;;;;;;3.05;1.25;;;;;;;7.29;71.53;98320.97;4447758;32;34519;-71
2021/12/02 02:54:53;;;;;;;3.50;1.37;;;;;;;8.09;69.10;98321.28;4450227;32;34078;-71
2021/12/02 02:57:47;;;;;;;4.03;1.40;;;;;;;8.35;68.03;98312.19;4449435;32;34574;-71
2021/12/02 03:00:38;;;;;;;2.92;1.25;;;;;;;8.48;67.41;98324.03;4447290;32;36195;-71
2021/12/02 03:03:35;;;;;;;3.47;1.52;;;;;;;8.08;68.93;98325.16;4449591;32;35441;-71
2021/12/02 03:06:31;;;;;;;4.32;1.25;;;;;;;8.47;67.48;98320.50;4440372;32;35208;-71
2021/12/02 03:12:23;;;;;;;3.97;1.55;;;;;;;8.41;67.30;98305.44;4449925;32;34965;-71
2021/12/02 03:17:59;;;;;;;2.50;1.42;;;;;;;9.00;65.10;98316.31;4450189;32;34214;-71
2021/12/02 03:20:45;;;;;;;7.05;1.92;;;;;;;8.76;66.11;98321.63;4450303;32;35588;-71
2021/12/02 03:23:53;;;;;;;5.53;1.60;;;;;;;8.87;65.58;98325.56;4449577;32;35967;-72
2021/12/02 03:26:39;;;;;;;3.87;1.60;;;;;;;8.74;65.76;98321.97;4438427;32;34591;-72
2021/12/02 03:29:25;;;;;;;4.25;1.30;;;;;;;8.10;68.76;98331.06;4450332;32;33907;-72
2021/12/02 03:32:12;;;;;;;5.68;1.58;;;;;;;7.47;71.48;98338.09;4439221;32;34628;-71
2021/12/02 03:34:58;;;;;;;4.03;1.35;;;;;;;7.64;70.66;98331.81;4449620;32;35075;-72
2021/12/02 03:37:44;;;;;;;3.10;1.30;;;;;;;8.41;67.75;98327.28;4450849;32;35180;-71
2021/12/02 03:40:31;;;;;;;3.42;1.45;;;;;;;8.27;68.10;98323.94;4450073;32;33806;-71
2021/12/02 03:43:18;;;;;;;4.18;1.70;;;;;;;8.34;67.39;98326.97;4450234;32;34585;-71
2021/12/02 03:46:09;;;;;;;4.90;2.05;;;;;;;8.48;67.28;98313.09;4450665;32;35691;-71
2021/12/02 03:48:56;;;;;;;3.92;2.10;;;;;;;8.60;66.71;98313.22;4449492;32;34868;-71
2021/12/02 03:51:42;;;;;;;3.45;1.50;;;;;;;8.61;66.35;98308.56;4449355;32;34569;-72
2021/12/02 03:54:29;;;;;;;4.30;1.60;;;;;;;8.72;66.03;98313.28;4449937;32;34611;-71
2021/12/02 03:57:15;;;;;;;4.05;1.62;;;;;;;8.39;67.31;98315.87;4449705;32;36033;-71
2021/12/02 04:00:03;;;;;;;3.72;1.45;;;;;;;8.97;65.41;98316.19;4449540;32;34596;-71
2021/12/02 04:02:57;;;;;;;4.20;1.50;;;;;;;7.22;72.19;98321.44;4448624;32;35491;-72
2021/12/02 04:05:44;;;;;;;3.28;1.42;;;;;;;8.24;68.74;98310.94;4449309;32;36114;-71
2021/12/02 04:08:38;;;;;;;2.80;1.50;;;;;;;8.55;67.69;98308.72;4448291;32;34989;-71
2021/12/02 04:11:33;;;;;;;5.82;1.98;;;;;;;8.83;66.47;98315.66;4447664;32;34233;-71
2021/12/02 04:14:34;;;;;;;4.15;2.17;;;;;;;8.63;66.75;98325.41;4448388;32;33763;-71
2021/12/02 04:17:29;;;;;;;3.15;1.67;;;;;;;8.92;65.87;98327.31;4449222;32;35175;-72
2021/12/02 04:20:19;;;;;;;3.58;1.58;;;;;;;8.26;67.96;98325.88;4450339;32;34988;-71
2021/12/02 04:23:05;;;;;;;5.82;1.70;;;;;;;8.15;69.09;98330.09;4449288;32;34732;-71
2021/12/02 04:25:51;;;;;;;4.53;1.77;;;;;;;8.39;68.77;98337.72;4449327;32;35076;-71
2021/12/02 04:28:38;;;;;;;4.22;2.05;;;;;;;8.71;67.86;98340.94;4449759;32;34128;-71
2021/12/02 04:31:24;;;;;;;3.72;1.60;;;;;;;8.67;67.94;98345.44;4449314;32;35022;-71
2021/12/02 04:34:12;;;;;;;5.53;1.70;;;;;;;8.60;67.90;98332.31;4449917;32;34759;-71
2021/12/02 04:36:58;;;;;;;3.72;1.50;;;;;;;7.90;71.50;98329.03;4438739;32;35074;-71
2021/12/02 04:39:45;;;;;;;5.85;2.03;;;;;;;8.02;70.76;98320.97;4449104;32;34026;-71
2021/12/02 04:42:31;;;;;;;4.45;2.08;;;;;;;8.76;68.27;98329.81;4447646;32;34625;-71
2021/12/02 04:45:18;;;;;;;4.18;1.83;;;;;;;8.83;67.68;98321.12;4436624;32;34388;-71
2021/12/02 04:48:05;;;;;;;4.00;1.60;;;;;;;8.49;68.70;98322.91;4449969;32;34404;-72
2021/12/02 04:50:51;;;;;;;5.10;1.90;;;;;;;8.36;70.08;98324.69;4449688;32;35489;-71
2021/12/02 04:53:37;;;;;;;3.95;1.90;;;;;;;8.45;69.76;98314.59;4447943;32;34979;-71
2021/12/02 04:56:24;;;;;;;3.97;1.85;;;;;;;8.76;69.01;98310.69;4449630;32;35513;-71
2021/12/02 04:59:10;;;;;;;5.70;2.55;;;;;;;8.83;68.51;98316.44;4436264;32;34166;-71
2021/12/02 05:01:56;;;;;;;7.20;2.15;;;;;;;8.80;68.31;98317.09;4448862;32;34686;-71
2021/12/02 05:04:43;;;;;;;8.00;2.70;;;;;;;8.73;68.22;98314.88;4449096;32;34522;-71
2021/12/02 05:07:29;;;;;;;7.25;2.60;;;;;;;7.79;72.24;98330.50;4448647;32;34206;-71
2021/12/02 05:10:16;;;;;;;3.90;1.90;;;;;;;8.00;71.57;98322.44;4448197;32;35006;-71
2021/12/02 05:13:03;;;;;;;4.80;2.40;;;;;;;7.11;75.82;98341.94;4448285;32;35618;-71
2021/12/02 05:15:49;;;;;;;9.82;4.93;;;;;;;7.56;74.37;98351.72;4448104;32;35634;-71
2021/12/02 05:18:35;;;;;;;10.13;4.10;;;;;;;5.67;82.66;98357.88;4448826;32;34698;-71
2021/12/02 05:21:22;;;;;;;7.10;2.53;;;;;;;6.86;77.35;98356.31;4448247;32;34148;-71
2021/12/02 05:24:09;;;;;;;15.00;4.68;;;;;;;6.28;79.86;98347.34;4448903;32;34846;-71
2021/12/02 05:26:55;;;;;;;11.27;4.50;;;;;;;5.72;82.88;98336.03;4451411;32;34798;-71
2021/12/02 05:29:41;;;;;;;9.88;4.15;;;;;;;5.52;84.74;98339.22;4451178;32;34646;-71
2021/12/02 05:32:30;;;;;;;8.75;3.67;;;;;;;5.59;85.16;98336.88;4451175;32;34148;-71
2021/12/02 05:35:17;;;;;;;8.35;3.50;;;;;;;6.64;80.78;98332.75;4450541;32;34824;-71
2021/12/02 05:38:03;;;;;;;7.68;3.62;;;;;;;7.11;78.29;98331.03;4451033;32;34947;-71
2021/12/02 05:40:50;;;;;;;7.78;3.58;;;;;;;7.50;76.71;98326.53;4448812;32;34853;-71
2021/12/02 05:43:36;;;;;;;8.32;3.70;;;;;;;7.27;77.35;98336.03;4449876;32;35184;-71
2021/12/02 05:46:22;;;;;;;8.35;3.50;;;;;;;7.18;79.03;98331.37;4447500;32;34297;-72
2021/12/02 05:49:09;;;;;;;8.70;4.00;;;;;;;7.95;75.73;98325.34;4449614;32;34983;-71
2021/12/02 05:51:55;;;;;;;7.68;3.87;;;;;;;8.37;73.29;98325.50;4449771;32;34738;-71
2021/12/02 05:54:42;;;;;;;7.55;3.65;;;;;;;8.40;73.02;98314.75;4448556;32;35105;-70
2021/12/02 05:57:31;;;;;;;8.02;3.58;;;;;;;8.49;72.84;98318.25;4449859;32;34658;-71
2021/12/02 06:00:18;;;;;;;8.23;4.15;;;;;;;8.50;72.66;98317.09;4448665;32;36005;-70
2021/12/02 06:03:05;;;;;;;10.25;4.22;;;;;;;8.29;73.19;98321.69;4437680;32;34634;-71
2021/12/02 06:05:51;;;;;;;11.15;5.12;;;;;;;7.90;74.85;98323.59;4450232;32;34174;-70
2021/12/02 06:08:38;;;;;;;9.20;4.78;;;;;;;8.07;74.60;98312.62;4448616;32;35586;-70
2021/12/02 06:11:25;;;;;;;9.95;5.10;;;;;;;7.69;76.39;98314.50;4447732;32;35157;-74
2021/12/02 06:14:13;;;;;;;32.40;12.25;;;;;;;8.20;74.71;98310.03;4437815;32;35279;-74
2021/12/02 06:16:59;;;;;;;19.60;9.32;;;;;;;8.00;75.16;98308.81;4446699;32;34867;-72
2021/12/02 06:19:46;;;;;;;20.85;8.95;;;;;;;7.82;75.94;98313.50;4447529;32;35492;-73
2021/12/02 06:22:33;;;;;;;20.27;8.63;;;;;;;7.71;76.63;98321.22;4446392;32;34668;-72
2021/12/02 06:28:06;;;;;;;13.85;6.82;;;;;;;8.10;75.13;98320.12;4446915;32;35181;-75
2021/12/02 06:30:52;;;;;;;37.13;16.12;;;;;;;8.11;75.15;98329.13;4446264;32;35486;-72
2021/12/02 06:33:39;;;;;;;19.55;8.38;;;;;;;8.08;75.41;98316.13;4448573;32;35669;-73
2021/12/02 06:36:26;;;;;;;11.07;5.47;;;;;;;8.06;75.73;98324.66;4444270;32;34444;-73
2021/12/02 06:39:17;;;;;;;14.85;5.87;;;;;;;8.10;75.57;98317.41;4448249;32;35123;-73
2021/12/02 06:42:04;;;;;;;11.48;5.25;;;;;;;8.11;75.86;98308.13;4447298;32;34534;-72
2021/12/02 06:44:50;;;;;;;11.18;5.60;;;;;;;8.23;75.31;98309.34;4448096;32;35173;-73
2021/12/02 06:47:41;;;;;;;14.15;7.43;;;;;;;8.38;74.83;98316.97;4447952;32;34620;-76
2021/12/02 06:50:30;;;;;;;14.73;7.12;;;;;;;6.74;81.28;98325.09;4432714;32;34036;-76
2021/12/02 06:53:17;;;;;;;17.67;7.37;;;;;;;5.25;90.46;98327.38;4448603;32;35103;-75
2021/12/02 06:56:05;;;;;;;15.85;7.68;;;;;;;6.21;88.26;98344.31;4448250;32;34840;-75
2021/12/02 06:58:53;;;;;;;15.55;7.72;;;;;;;6.99;83.08;98344.50;4445913;32;35520;-75
2021/12/02 07:01:43;;;;;;;17.00;7.83;;;;;;;5.37;90.76;98343.91;4426415;32;35016;-75
2021/12/02 07:04:29;;;;;;;13.20;7.28;;;;;;;5.18;92.74;98337.88;4449242;32;34226;-75
2021/12/02 07:07:16;;;;;;;14.85;7.93;;;;;;;5.77;90.62;98349.47;4448166;32;35876;-75
2021/12/02 07:10:12;;;;;;;17.73;10.52;;;;;;;5.66;92.75;98358.19;4448412;32;34623;-75
2021/12/02 07:13:00;;;;;;;13.80;8.40;;;;;;;6.68;86.62;98369.91;4448145;32;34948;-76
2021/12/02 07:15:51;;;;;;;18.40;9.82;;;;;;;5.93;89.90;98357.25;4447650;32;34627;-76
2021/12/02 07:18:42;;;;;;;21.33;11.47;;;;;;;6.94;86.03;98371.88;4448829;32;35650;-76
2021/12/02 07:21:30;;;;;;;24.83;10.75;;;;;;;6.89;84.63;98366.59;4448977;32;34294;-76
2021/12/02 07:24:16;;;;;;;22.60;10.32;;;;;;;7.39;83.22;98360.69;4448374;32;34223;-76
2021/12/02 07:27:23;;;;;;;17.52;8.85;;;;;;;7.86;80.50;98371.72;4439943;32;34096;-76
2021/12/02 07:30:10;;;;;;;10.48;5.82;;;;;;;7.72;80.24;98371.13;4446326;32;35102;-78
2021/12/02 07:32:59;;;;;;;13.27;5.78;;;;;;;6.99;84.63;98366.28;4447275;32;34528;-76
2021/12/02 07:35:44;;;;;;;9.05;4.80;;;;;;;6.55;87.51;98372.75;4446266;32;35248;-77
2021/12/02 07:38:32;;;;;;;9.38;4.80;;;;;;;5.60;93.38;98376.53;4448050;32;34193;-77
2021/12/02 07:41:18;;;;;;;11.07;6.03;;;;;;;6.53;90.62;98376.56;4448324;32;34462;-76
2021/12/02 07:44:05;;;;;;;10.15;4.87;;;;;;;7.44;84.50;98374.16;4445832;32;34562;-76
2021/12/02 07:46:51;;;;;;;10.60;4.65;;;;;;;7.48;83.84;98377.03;4446143;32;34647;-76
2021/12/02 07:49:37;;;;;;;9.20;4.53;;;;;;;7.42;84.23;98373.69;4435921;32;34248;-76
2021/12/02 07:52:25;;;;;;;9.30;5.10;;;;;;;7.53;83.87;98380.41;4447387;32;34905;-75
2021/12/02 07:55:14;;;;;;;8.23;4.62;;;;;;;7.30;85.53;98382.50;4434933;32;34533;-76
2021/12/02 07:58:03;;;;;;;8.48;4.45;;;;;;;7.64;84.05;98384.41;4447577;32;34212;-76
2021/12/02 08:00:49;;;;;;;8.13;3.90;;;;;;;7.57;84.32;98381.38;4447575;32;35166;-75
2021/12/02 08:03:38;;;;;;;11.30;4.82;;;;;;;8.09;82.79;98394.13;4448546;32;35989;-75
2021/12/02 08:06:25;;;;;;;9.30;4.82;;;;;;;7.97;82.61;98381.19;4447266;32;34243;-75
2021/12/02 08:09:14;;;;;;;9.05;4.47;;;;;;;8.47;80.35;98382.47;4448491;32;34147;-76
2021/12/02 08:12:02;;;;;;;10.50;5.35;;;;;;;8.59;79.64;98387.25;4436705;32;34314;-77
2021/12/02 08:14:49;;;;;;;10.57;5.03;;;;;;;8.71;78.73;98384.63;4436516;32;35137;-78
2021/12/02 08:17:35;;;;;;;11.60;5.37;;;;;;;8.36;80.02;98390.19;4447585;32;35519;-78
2021/12/02 08:20:24;;;;;;;10.68;4.80;;;;;;;8.26;80.89;98385.09;4448216;32;34139;-79
2021/12/02 08:23:10;;;;;;;10.52;4.75;;;;;;;8.68;79.50;98385.25;4445206;32;34639;-79
2021/12/02 08:25:56;;;;;;;10.40;4.90;;;;;;;8.91;78.36;98385.81;4448240;32;35045;-80
2021/12/02 08:28:43;;;;;;;10.20;4.68;;;;;;;8.96;78.14;98394.59;4446491;32;34264;-80
2021/12/02 08:31:29;;;;;;;11.55;5.45;;;;;;;8.81;79.09;98395.16;4446820;32;34406;-81
2021/12/02 08:34:17;;;;;;;15.55;8.48;;;;;;;8.91;78.67;98400.28;4447950;32;35537;-81
2021/12/02 08:37:05;;;;;;;22.48;13.00;;;;;;;8.18;81.27;98410.50;4447877;32;35540;-81
2021/12/02 08:39:51;;;;;;;18.95;9.20;;;;;;;7.54;84.20;98405.75;4447959;32;34384;-80
2021/12/02 08:42:38;;;;;;;16.75;8.10;;;;;;;7.62;84.57;98405.72;4448320;32;33380;-80
2021/12/02 08:45:24;;;;;;;14.50;7.40;;;;;;;8.57;81.41;98412.16;4446781;32;35156;-80
2021/12/02 08:48:13;;;;;;;10.95;5.93;;;;;;;8.58;80.84;98407.50;4446756;32;34994;-80
2021/12/02 08:50:59;;;;;;;10.50;6.45;;;;;;;8.28;81.89;98418.31;4447524;32;34613;-80
2021/12/02 08:53:46;;;;;;;12.40;6.87;;;;;;;7.48;85.32;98418.72;4447887;32;34405;-80
2021/12/02 08:56:32;;;;;;;14.68;6.25;;;;;;;7.20;88.01;98410.88;4449757;32;34581;-80
2021/12/02 08:59:19;;;;;;;13.57;8.00;;;;;;;7.47;86.77;98419.84;4444087;32;36027;-80
2021/12/02 09:02:05;;;;;;;14.63;7.10;;;;;;;7.13;88.65;98415.97;4448381;32;34747;-80
2021/12/02 09:04:52;;;;;;;12.40;6.35;;;;;;;7.61;87.46;98416.97;4445631;32;35153;-80
2021/12/02 09:07:38;;;;;;;12.90;6.57;;;;;;;8.13;85.23;98410.66;4447360;32;35413;-80
2021/12/02 09:10:26;;;;;;;14.70;6.62;;;;;;;7.47;87.47;98408.97;4449049;32;35893;-80
2021/12/02 09:13:12;;;;;;;21.87;10.95;;;;;;;7.38;89.48;98402.72;4449488;32;36883;-80
2021/12/02 09:15:58;;;;;;;25.05;11.15;;;;;;;7.18;91.05;98399.47;4449127;32;34776;-80
2021/12/02 09:18:44;;;;;;;22.13;11.68;;;;;;;7.60;89.11;98397.09;4450209;32;34150;-80
2021/12/02 09:21:30;;;;;;;21.80;10.32;;;;;;;7.77;87.84;98395.47;4447327;32;35004;-79
2021/12/02 09:24:19;;;;;;;20.17;10.05;;;;;;;7.82;87.96;98392.56;4449602;32;34833;-79
2021/12/02 09:27:06;;;;;;;18.50;9.73;;;;;;;8.20;85.33;98391.88;4449990;32;34260;-79
2021/12/02 09:29:52;;;;;;;20.75;9.98;;;;;;;8.39;84.21;98384.09;4448553;32;35551;-80
2021/12/02 09:32:39;;;;;;;19.65;10.45;;;;;;;8.52;83.28;98374.91;4450899;32;35961;-80
2021/12/02 09:35:25;;;;;;;24.63;12.40;;;;;;;7.22;90.21;98375.91;4449301;32;34606;-80
2021/12/02 09:38:11;;;;;;;25.60;13.25;;;;;;;6.80;93.98;98374.72;4450611;32;34255;-80
2021/12/02 09:40:58;;;;;;;22.70;12.13;;;;;;;7.27;92.51;98372.25;4446186;32;34218;-79
2021/12/02 09:43:44;;;;;;;22.23;12.68;;;;;;;7.63;90.69;98363.75;4449316;32;34669;-79
2021/12/02 09:46:31;;;;;;;24.50;12.88;;;;;;;7.56;91.45;98357.16;4448806;32;34701;-79
2021/12/02 09:49:18;;;;;;;20.83;10.57;;;;;;;7.59;91.17;98353.78;4437296;32;34838;-79
2021/12/02 09:52:09;;;;;;;19.42;9.90;;;;;;;7.42;91.49;98358.12;4448771;32;35182;-79
2021/12/02 09:55:02;;;;;;;17.00;10.57;;;;;;;7.36;93.07;98355.91;4446571;32;36019;-79
2021/12/02 09:57:53;;;;;;;18.85;9.75;;;;;;;7.34;92.27;98352.69;4448090;32;34464;-79
2021/12/02 10:00:41;;;;;;;18.20;10.23;;;;;;;7.82;90.45;98344.28;4448097;32;34665;-79
2021/12/02 10:03:31;;;;;;;18.50;9.38;;;;;;;8.08;88.71;98338.78;4450303;32;34600;-79
2021/12/02 10:06:23;;;;;;;21.95;10.48;;;;;;;7.91;90.44;98341.53;4449196;32;34988;-79
2021/12/02 10:09:52;;;;;;;19.75;9.95;;;;;;;8.38;88.00;98338.81;4448626;32;34214;-79
2021/12/02 10:12:30;;;;;;;20.85;10.00;;;;;;;8.73;86.29;98338.66;4450155;32;34653;-80
2021/12/02 10:15:18;;;;;;;19.90;10.90;;;;;;;7.65;89.97;98331.47;4446533;32;34366;-80
2021/12/02 10:18:14;;;;;;;17.55;9.63;;;;;;;7.30;93.24;98327.22;4437467;32;34929;-80
2021/12/02 10:21:23;;;;;;;17.73;10.00;;;;;;;8.53;87.81;98335.56;4449639;32;35747;-80
2021/12/02 10:24:26;;;;;;;34.80;18.23;;;;;;;8.81;85.58;98321.44;4448102;32;34268;-80
2021/12/02 10:27:13;;;;;;;25.60;14.48;;;;;;;8.85;85.42;98319.66;4452077;32;34197;-80
2021/12/02 10:30:23;;;;;;;20.95;11.02;;;;;;;8.01;89.55;98319.38;4446320;32;34640;-80
2021/12/02 10:33:11;;;;;;;18.05;9.85;;;;;;;8.64;87.18;98307.88;4447804;32;34540;-80
2021/12/02 10:35:57;;;;;;;9.88;5.70;;;;;;;9.02;85.59;98318.69;4437283;32;34761;-80
2021/12/02 10:38:45;;;;;;;9.32;4.70;;;;;;;8.19;87.77;98303.75;4447869;32;33946;-80
2021/12/02 10:41:32;;;;;;;8.10;3.70;;;;;;;7.78;91.11;98305.16;4449735;32;35652;-80
2021/12/02 10:44:19;;;;;;;5.45;2.90;;;;;;;7.62;90.86;98306.81;4449798;32;35326;-80
2021/12/02 10:47:10;;;;;;;8.25;2.80;;;;;;;7.11;93.37;98309.25;4450225;32;34330;-80
2021/12/02 10:49:59;;;;;;;5.03;2.35;;;;;;;7.18;94.52;98308.78;4448155;32;34509;-80
2021/12/02 10:52:45;;;;;;;4.95;2.33;;;;;;;7.18;94.67;98306.84;4437589;32;33844;-80
2021/12/02 10:55:32;;;;;;;4.90;2.25;;;;;;;7.65;92.04;98296.03;4449244;32;35254;-80
2021/12/02 10:58:30;;;;;;;4.90;1.90;;;;;;;6.88;96.36;98296.91;4448183;32;33770;-80
2021/12/02 11:01:36;;;;;;;4.47;1.92;;;;;;;6.50;97.40;98292.06;4447254;32;34213;-80
2021/12/02 11:04:24;;;;;;;4.20;1.55;;;;;;;6.24;99.06;98287.34;4448487;32;35589;-80
2021/12/02 11:07:13;;;;;;;3.50;1.70;;;;;;;6.16;99.44;98285.41;4449407;32;34596;-80
2021/12/02 11:10:02;;;;;;;3.17;1.45;;;;;;;6.40;98.12;98281.47;4448101;32;33054;-80
2021/12/02 11:12:51;;;;;;;2.53;1.10;;;;;;;5.93;100.00;98272.97;4448300;32;34585;-80
2021/12/02 11:15:39;;;;;;;4.05;1.58;;;;;;;6.37;98.40;98280.16;4444652;32;34651;-80
2021/12/02 11:18:28;;;;;;;4.45;1.25;;;;;;;6.77;96.13;98271.91;4446261;32;34808;-80
2021/12/02 11:21:20;;;;;;;2.15;1.00;;;;;;;6.56;97.42;98276.38;4447483;32;33988;-80
2021/12/02 11:24:08;;;;;;;3.70;1.20;;;;;;;6.81;95.97;98278.34;4447570;32;35521;-80
2021/12/02 11:27:14;;;;;;;2.62;1.00;;;;;;;6.70;95.24;98266.94;4447562;32;34531;-80
2021/12/02 11:30:08;;;;;;;1.67;0.80;;;;;;;6.19;98.82;98271.16;4447702;32;34576;-80
2021/12/02 11:33:05;;;;;;;1.52;0.70;;;;;;;5.98;98.58;98262.78;4448031;32;34680;-79
2021/12/02 11:35:52;;;;;;;1.90;1.00;;;;;;;5.87;100.00;98262.22;4447827;32;34535;-79
2021/12/02 11:38:38;;;;;;;2.90;1.30;;;;;;;6.24;98.04;98260.16;4445458;32;35992;-79
2021/12/02 11:41:26;;;;;;;2.65;0.95;;;;;;;6.54;96.29;98268.53;4425942;32;34674;-80
2021/12/02 11:44:13;;;;;;;2.70;0.80;;;;;;;6.34;96.12;98261.75;4447892;32;34734;-79
2021/12/02 11:46:59;;;;;;;2.55;0.77;;;;;;;5.95;98.32;98265.31;4447860;32;35174;-80
2021/12/02 11:49:46;;;;;;;2.05;0.85;;;;;;;6.29;96.54;98260.00;4448805;32;37048;-80
2021/12/02 11:52:35;;;;;;;1.92;0.70;;;;;;;6.48;95.13;98248.81;4447297;32;34685;-81
2021/12/02 11:55:26;;;;;;;2.87;0.88;;;;;;;6.47;95.67;98247.22;4448082;32;34292;-81
2021/12/02 11:58:12;;;;;;;3.27;0.90;;;;;;;6.58;93.35;98242.28;4447287;32;33528;-81
2021/12/02 12:00:58;;;;;;;4.55;0.82;;;;;;;6.99;90.73;98249.19;4447106;32;34829;-81
2021/12/02 12:03:49;;;;;;;4.35;1.12;;;;;;;6.82;91.74;98251.91;4446639;32;34593;-81
2021/12/02 12:06:38;;;;;;;2.28;1.05;;;;;;;7.50;88.44;98254.87;4446876;32;34181;-81
2021/12/02 12:09:25;;;;;;;2.22;1.10;;;;;;;7.35;89.49;98248.03;4447379;32;34180;-81
2021/12/02 12:12:11;;;;;;;3.80;1.12;;;;;;;6.99;90.25;98241.81;4445819;32;34666;-81
2021/12/02 12:14:57;;;;;;;3.65;1.50;;;;;;;7.06;90.88;98246.78;4447144;32;34553;-81
2021/12/02 12:17:44;;;;;;;5.97;2.70;;;;;;;6.39;95.84;98244.50;4446944;32;34266;-81
2021/12/02 12:20:49;;;;;;;5.20;2.60;;;;;;;6.65;94.62;98245.31;4426694;32;34756;-81
2021/12/02 12:23:59;;;;;;;4.43;1.40;;;;;;;6.86;92.80;98226.47;4447433;32;34967;-81
2021/12/02 12:26:47;;;;;;;2.10;1.20;;;;;;;6.29;94.95;98219.22;4447492;32;34228;-80
2021/12/02 12:29:33;;;;;;;3.35;1.42;;;;;;;5.92;99.40;98223.25;4455097;32;35816;-80
2021/12/02 12:32:27;;;;;;;3.72;1.65;;;;;;;6.07;98.58;98224.75;4454558;32;34604;-80
2021/12/02 12:36:01;;;;;;;2.45;1.30;;;;;;;6.22;97.73;98228.94;4454452;32;36035;-77
2021/12/02 12:38:48;;;;;;;2.78;1.20;;;;;;;6.40;95.82;98221.59;4441045;32;35476;-80
2021/12/02 12:41:34;;;;;;;4.50;1.35;;;;;;;5.95;97.38;98213.66;4447726;32;34145;-79
2021/12/02 12:44:57;;;;;;;4.00;1.77;;;;;;;5.80;99.42;98212.94;4454887;32;35565;-79
2021/12/02 12:47:50;;;;;;;5.22;1.98;;;;;;;5.75;99.95;98215.00;4451753;32;34916;-79
2021/12/02 12:50:45;;;;;;;10.65;3.55;;;;;;;5.80;100.00;98212.13;4454853;32;34680;-80
2021/12/02 12:53:31;;;;;;;3.35;1.10;;;;;;;6.21;97.10;98224.63;4455013;32;34285;-80
2021/12/02 12:56:26;;;;;;;5.30;1.20;;;;;;;5.85;98.49;98231.03;4440264;32;34619;-80
2021/12/02 12:59:14;;;;;;;2.90;1.20;;;;;;;6.03;99.28;98221.03;4444142;32;34910;-80
2021/12/02 13:02:02;;;;;;;2.05;0.98;;;;;;;6.11;97.33;98216.75;4455429;32;34588;-80
2021/12/02 13:04:52;;;;;;;3.33;1.12;;;;;;;6.48;96.52;98215.38;4455161;32;35108;-80
2021/12/02 13:08:19;;;;;;;3.92;1.20;;;;;;;6.37;95.73;98208.63;4454994;32;34693;-80
2021/12/02 13:11:20;;;;;;;2.03;0.88;;;;;;;5.98;95.87;98210.34;4456141;32;35717;-79
2021/12/02 13:14:06;;;;;;;2.40;1.00;;;;;;;5.75;96.11;98201.41;4460822;32;35193;-79
2021/12/02 13:16:53;;;;;;;3.53;0.90;;;;;;;5.75;97.36;98204.94;4458449;32;34411;-80
2021/12/02 13:19:56;;;;;;;3.10;1.15;;;;;;;6.05;95.44;98211.44;4456768;32;34580;-80
2021/12/02 13:23:02;;;;;;;2.50;1.17;;;;;;;7.14;90.88;98207.03;4462544;32;35022;-80
2021/12/02 13:26:04;;;;;;;1.55;0.88;;;;;;;7.65;87.93;98206.09;4462017;32;34838;-80
2021/12/02 13:28:53;;;;;;;1.52;0.80;;;;;;;7.82;86.79;98212.59;4458633;32;35145;-80
2021/12/02 13:31:42;;;;;;;2.53;1.40;;;;;;;8.26;83.99;98226.84;4462864;32;35624;-80
2021/12/02 13:34:30;;;;;;;5.25;2.22;;;;;;;8.46;83.09;98220.62;4461565;32;35897;-80
2021/12/02 13:37:17;;;;;;;5.80;1.80;;;;;;;8.42;83.59;98214.22;4460604;32;34862;-80